createdAt,value
2019-01-19T00:00:14.706Z,1.00
2019-01-19T00:03:11.026Z,1.00
2019-01-19T00:05:50.748Z,1.00
2019-01-19T00:08:27.608Z,1.00
2019-01-19T00:11:35.165Z,1.00
2019-01-19T00:14:09.268Z,1.00
2019-01-19T00:16:51.833Z,1.10
2019-01-19T00:19:48.544Z,1.00
2019-01-19T00:22:43.596Z,1.10
2019-01-19T00:25:35.146Z,1.10
2019-01-19T00:28:28.072Z,1.10
2019-01-19T00:31:04.747Z,1.10
2019-01-19T00:34:01.145Z,1.10
2019-01-19T00:36:40.734Z,1.10
2019-01-19T00:39:23.215Z,1.10
2019-01-19T00:42:20.872Z,1.10
2019-01-19T00:45:12.537Z,1.10
2019-01-19T00:48:01.390Z,1.10
2019-01-19T00:50:53.228Z,1.10
2019-01-19T00:53:41.797Z,1.10
2019-01-19T00:56:37.993Z,1.10
2019-01-19T00:59:15.141Z,1.10
2019-01-19T01:02:03.301Z,1.10
2019-01-19T01:04:43.124Z,1.00
2019-01-19T01:07:28.609Z,1.00
2019-01-19T01:10:17.786Z,1.00
2019-01-19T01:13:26.410Z,1.00
2019-01-19T01:16:05.809Z,1.00
2019-01-19T01:18:50.970Z,1.00
2019-01-19T01:21:42.519Z,1.00
2019-01-19T01:24:25.612Z,1.00
2019-01-19T01:26:59.726Z,1.00
2019-01-19T01:30:02.341Z,1.00
2019-01-19T01:32:57.441Z,1.00
2019-01-19T01:35:47.969Z,1.10
2019-01-19T01:38:37.247Z,1.10
2019-01-19T01:41:30.996Z,1.10
2019-01-19T01:44:39.920Z,1.10
2019-01-19T01:47:28.981Z,1.10
2019-01-19T01:50:20.866Z,1.00
2019-01-19T01:53:03.728Z,1.00
2019-01-19T01:55:36.971Z,1.00
2019-01-19T01:58:11.229Z,1.00
2019-01-19T02:01:15.876Z,1.00
2019-01-19T02:04:01.663Z,1.00
2019-01-19T02:06:58.364Z,1.00
2019-01-19T02:10:07.834Z,1.00
2019-01-19T02:15:59.436Z,1.00
2019-01-19T02:18:36.063Z,1.00
2019-01-19T02:21:22.023Z,1.00
2019-01-19T02:23:58.570Z,1.00
2019-01-19T02:26:46.528Z,1.10
2019-01-19T02:29:50.423Z,1.10
2019-01-19T02:32:45.044Z,1.10
2019-01-19T02:35:21.546Z,1.10
2019-01-19T02:38:24.805Z,1.10
2019-01-19T02:41:38.825Z,1.10
2019-01-19T02:44:24.778Z,1.10
2019-01-19T02:47:07.699Z,1.10
2019-01-19T02:50:06.387Z,1.10
2019-01-19T02:53:04.515Z,1.10
2019-01-19T02:55:45.602Z,1.10
2019-01-19T02:58:42.020Z,1.10
2019-01-19T03:01:30.344Z,1.10
2019-01-19T03:04:31.510Z,1.10
2019-01-19T03:07:25.794Z,1.10
2019-01-19T03:10:25.316Z,1.10
2019-01-19T03:13:17.513Z,1.10
2019-01-19T03:16:24.233Z,1.00
2019-01-19T03:19:32.386Z,1.00
2019-01-19T03:22:37.971Z,1.00
2019-01-19T03:25:47.531Z,1.00
2019-01-19T03:28:33.297Z,1.00
2019-01-19T03:31:50.849Z,1.00
2019-01-19T03:34:30.214Z,1.00
2019-01-19T03:37:25.232Z,0.90
2019-01-19T03:40:26.194Z,1.00
2019-01-19T03:43:22.858Z,1.00
2019-01-19T03:46:11.951Z,1.00
2019-01-19T03:49:17.854Z,1.00
2019-01-19T03:52:00.656Z,0.90
2019-01-19T03:54:55.839Z,0.90
2019-01-19T03:57:44.926Z,0.90
2019-01-19T04:00:18.990Z,0.90
2019-01-19T04:03:12.504Z,0.90
2019-01-19T04:06:14.961Z,0.90
2019-01-19T04:09:31.611Z,0.90
2019-01-19T04:12:14.509Z,0.90
2019-01-19T04:15:15.657Z,0.90
2019-01-19T04:18:07.430Z,0.90
2019-01-19T04:21:02.331Z,0.90
2019-01-19T04:23:32.224Z,0.90
2019-01-19T04:26:04.100Z,0.90
2019-01-19T04:28:33.617Z,0.90
2019-01-19T04:31:03.121Z,0.90
2019-01-19T04:33:32.574Z,0.90
2019-01-19T04:36:02.031Z,0.90
2019-01-19T04:38:33.660Z,0.90
2019-01-19T04:41:03.220Z,0.90
2019-01-19T04:43:32.676Z,0.90
2019-01-19T04:46:02.218Z,0.90
2019-01-19T04:48:32.071Z,0.90
2019-01-19T04:51:01.504Z,0.90
2019-01-19T04:53:30.964Z,0.90
2019-01-19T04:56:00.427Z,0.90
2019-01-19T04:58:29.876Z,0.90
2019-01-19T05:00:59.439Z,0.90
2019-01-19T05:03:28.882Z,0.90
2019-01-19T05:05:58.310Z,0.90
2019-01-19T05:08:27.880Z,0.90
2019-01-19T05:10:57.373Z,0.90
2019-01-19T05:13:26.847Z,1.00
2019-01-19T05:15:56.327Z,0.90
2019-01-19T05:18:25.971Z,0.90
2019-01-19T05:20:55.607Z,0.90
2019-01-19T05:23:25.627Z,1.00
2019-01-19T05:25:55.198Z,1.00
2019-01-19T05:28:24.681Z,1.00
2019-01-19T05:30:54.163Z,1.00
2019-01-19T05:33:23.709Z,1.00
2019-01-19T05:35:53.230Z,1.00
2019-01-19T05:38:22.724Z,1.00
2019-01-19T05:40:52.199Z,1.00
2019-01-19T05:43:21.652Z,1.00
2019-01-19T05:45:51.110Z,1.00
2019-01-19T05:48:20.532Z,1.00
2019-01-19T05:50:50.048Z,1.00
2019-01-19T05:53:19.529Z,1.00
2019-01-19T05:55:49.026Z,1.00
2019-01-19T05:58:18.498Z,1.00
2019-01-19T06:00:47.966Z,1.00
2019-01-19T06:03:17.394Z,1.00
2019-01-19T06:05:47.038Z,1.00
2019-01-19T06:08:16.638Z,1.00
2019-01-19T06:10:46.190Z,1.00
2019-01-19T06:13:15.669Z,1.00
2019-01-19T06:15:45.199Z,1.00
2019-01-19T06:18:14.649Z,1.00
2019-01-19T06:20:44.128Z,1.00
2019-01-19T06:23:13.622Z,1.00
2019-01-19T06:25:43.137Z,0.90
2019-01-19T06:28:12.708Z,1.00
2019-01-19T06:30:42.246Z,1.00
2019-01-19T06:33:11.710Z,1.00
2019-01-19T06:35:41.428Z,1.00
2019-01-19T06:38:10.878Z,1.00
2019-01-19T06:40:40.304Z,0.90
2019-01-19T06:43:09.743Z,0.90
2019-01-19T06:45:39.280Z,0.90
2019-01-19T06:48:08.809Z,0.90
2019-01-19T06:50:38.326Z,0.90
2019-01-19T06:53:07.770Z,0.90
2019-01-19T06:55:37.366Z,0.90
2019-01-19T06:58:07.099Z,0.90
2019-01-19T07:00:36.632Z,0.90
2019-01-19T07:03:06.359Z,0.90
2019-01-19T07:05:35.836Z,0.90
2019-01-19T07:08:05.436Z,0.80
2019-01-19T07:10:35.049Z,0.80
2019-01-19T07:13:04.587Z,0.80
2019-01-19T07:15:34.397Z,0.80
2019-01-19T07:18:03.873Z,0.80
2019-01-19T07:20:33.392Z,0.80
2019-01-19T07:23:03.697Z,0.80
2019-01-19T07:25:33.249Z,0.80
2019-01-19T07:28:02.814Z,0.80
2019-01-19T07:30:32.585Z,0.70
2019-01-19T07:33:02.134Z,0.70
2019-01-19T07:35:31.716Z,0.70
2019-01-19T07:38:01.236Z,0.70
2019-01-19T07:40:30.908Z,0.70
2019-01-19T07:43:01.870Z,0.70
2019-01-19T07:45:31.493Z,0.70
2019-01-19T07:48:01.182Z,0.70
2019-01-19T07:50:30.834Z,0.70
2019-01-19T07:53:00.273Z,0.70
2019-01-19T07:55:29.801Z,0.70
2019-01-19T07:57:59.334Z,0.70
2019-01-19T08:00:32.468Z,0.70
2019-01-19T08:03:02.133Z,0.70
2019-01-19T08:05:31.927Z,0.70
2019-01-19T08:08:01.515Z,0.70
2019-01-19T08:10:33.830Z,0.70
2019-01-19T08:13:03.450Z,0.70
2019-01-19T08:15:33.051Z,0.70
2019-01-19T08:18:02.512Z,0.70
2019-01-19T08:20:32.029Z,0.70
2019-01-19T08:23:01.599Z,0.70
2019-01-19T08:25:31.233Z,0.70
2019-01-19T08:28:01.393Z,0.80
2019-01-19T08:30:31.529Z,0.80
2019-01-19T08:33:01.071Z,0.80
2019-01-19T08:35:30.721Z,0.80
2019-01-19T08:38:00.337Z,0.80
2019-01-19T08:40:34.011Z,0.80
2019-01-19T08:43:05.255Z,0.90
2019-01-19T08:45:34.724Z,0.90
2019-01-19T08:48:04.579Z,0.90
2019-01-19T08:50:34.025Z,0.90
2019-01-19T08:53:05.871Z,1.00
2019-01-19T08:55:35.441Z,1.00
2019-01-19T08:58:05.211Z,1.00
2019-01-19T09:00:34.758Z,1.10
2019-01-19T09:03:04.366Z,1.10
2019-01-19T09:05:33.989Z,1.20
2019-01-19T09:08:03.490Z,1.20
2019-01-19T09:10:32.987Z,1.30
2019-01-19T09:13:02.526Z,1.30
2019-01-19T09:15:32.064Z,1.40
2019-01-19T09:18:01.523Z,1.40
2019-01-19T09:20:31.116Z,1.40
2019-01-19T09:23:08.318Z,1.50
2019-01-19T09:25:37.733Z,1.50
2019-01-19T09:28:07.244Z,1.50
2019-01-19T09:30:36.721Z,1.60
2019-01-19T09:33:06.424Z,1.60
2019-01-19T09:35:35.939Z,1.70
2019-01-19T09:38:05.696Z,1.70
2019-01-19T09:40:35.246Z,1.70
2019-01-19T09:43:04.923Z,1.80
2019-01-19T09:45:34.453Z,1.80
2019-01-19T09:48:04.080Z,1.90
2019-01-19T09:50:34.341Z,2.00
2019-01-19T09:53:03.941Z,2.00
2019-01-19T09:55:33.512Z,2.00
2019-01-19T09:58:03.167Z,2.10
2019-01-19T10:00:37.584Z,2.10
2019-01-19T10:03:04.105Z,2.20
2019-01-19T10:05:33.717Z,2.20
2019-01-19T10:08:03.325Z,2.30
2019-01-19T10:10:32.888Z,2.30
2019-01-19T10:13:02.443Z,2.40
2019-01-19T10:15:31.961Z,2.40
2019-01-19T10:18:01.594Z,2.50
2019-01-19T10:20:31.955Z,2.50
2019-01-19T10:23:01.488Z,2.60
2019-01-19T10:25:31.020Z,2.60
2019-01-19T10:28:00.560Z,2.70
2019-01-19T10:30:31.502Z,2.70
2019-01-19T10:33:01.002Z,2.70
2019-01-19T10:35:30.593Z,2.80
2019-01-19T10:38:00.139Z,2.80
2019-01-19T10:40:29.626Z,2.80
2019-01-19T10:42:59.114Z,2.80
2019-01-19T10:45:31.627Z,2.90
2019-01-19T10:48:01.238Z,2.90
2019-01-19T10:50:30.882Z,2.90
2019-01-19T10:53:00.430Z,3.00
2019-01-19T10:55:29.914Z,3.00
2019-01-19T10:57:59.364Z,3.10
2019-01-19T11:00:34.816Z,3.10
2019-01-19T11:03:05.408Z,3.10
2019-01-19T11:05:35.082Z,3.20
2019-01-19T11:08:06.761Z,3.20
2019-01-19T11:10:37.052Z,3.30
2019-01-19T11:13:06.834Z,3.40
2019-01-19T11:15:36.491Z,3.50
2019-01-19T11:18:06.183Z,3.60
2019-01-19T11:20:35.829Z,3.70
2019-01-19T11:23:05.417Z,3.90
2019-01-19T11:25:35.083Z,4.00
2019-01-19T11:28:04.846Z,4.10
2019-01-19T11:30:35.023Z,4.30
2019-01-19T11:33:04.744Z,4.40
2019-01-19T11:35:34.278Z,4.60
2019-01-19T11:38:04.102Z,4.70
2019-01-19T11:40:36.789Z,4.80
2019-01-19T11:43:08.240Z,4.90
2019-01-19T11:45:37.835Z,5.00
2019-01-19T11:48:07.644Z,5.20
2019-01-19T11:50:37.298Z,5.30
2019-01-19T11:53:06.910Z,5.40
2019-01-19T11:55:36.463Z,5.50
2019-01-19T11:58:06.222Z,5.70
2019-01-19T12:00:38.689Z,5.80
2019-01-19T12:03:08.643Z,5.90
2019-01-19T12:05:39.908Z,6.10
2019-01-19T12:08:10.150Z,6.30
2019-01-19T12:10:39.746Z,6.40
2019-01-19T12:13:09.263Z,6.50
2019-01-19T12:15:38.957Z,6.50
2019-01-19T12:18:08.766Z,6.70
2019-01-19T12:20:41.592Z,6.70
2019-01-19T12:23:11.313Z,6.80
2019-01-19T12:25:41.130Z,6.90
2019-01-19T12:28:10.604Z,7.00
2019-01-19T12:30:40.197Z,7.00
2019-01-19T12:33:09.698Z,7.00
2019-01-19T12:35:39.476Z,7.00
2019-01-19T12:38:09.067Z,6.90
2019-01-19T12:40:38.597Z,6.90
2019-01-19T12:43:15.451Z,6.80
2019-01-19T12:45:49.260Z,6.70
2019-01-19T12:48:18.854Z,6.60
2019-01-19T12:50:48.302Z,6.50
2019-01-19T12:53:17.901Z,6.40
2019-01-19T12:55:47.372Z,6.30
2019-01-19T12:58:16.827Z,6.20
2019-01-19T13:00:46.336Z,6.10
2019-01-19T13:03:15.888Z,6.00
2019-01-19T13:05:58.438Z,6.00
2019-01-19T13:08:34.333Z,5.90
2019-01-19T13:11:17.358Z,5.90
2019-01-19T13:13:48.538Z,5.90
2019-01-19T13:16:40.118Z,5.80
2019-01-19T13:19:19.970Z,5.80
2019-01-19T13:22:25.562Z,5.70
2019-01-19T13:25:17.500Z,5.70
2019-01-19T13:28:09.499Z,5.70
2019-01-19T13:31:13.465Z,5.70
2019-01-19T13:34:35.616Z,5.60
2019-01-19T13:37:37.028Z,5.60
2019-01-19T13:40:13.624Z,5.60
2019-01-19T13:43:06.811Z,5.60
2019-01-19T13:46:01.534Z,5.60
2019-01-19T13:49:14.352Z,5.60
2019-01-19T13:51:48.442Z,5.60
2019-01-19T13:54:53.572Z,5.60
2019-01-19T13:57:36.178Z,5.60
2019-01-19T14:00:24.968Z,5.60
2019-01-19T14:03:33.233Z,5.60
2019-01-19T14:06:18.871Z,5.50
2019-01-19T14:09:16.489Z,5.50
2019-01-19T14:12:05.494Z,5.50
2019-01-19T14:18:18.442Z,5.60
2019-01-19T14:21:34.664Z,5.50
2019-01-19T14:24:21.097Z,5.50
2019-01-19T14:27:20.681Z,5.50
2019-01-19T14:30:23.364Z,5.50
2019-01-19T14:33:24.231Z,5.50
2019-01-19T14:36:17.154Z,5.50
2019-01-19T14:39:03.340Z,5.40
2019-01-19T14:42:04.751Z,5.40
2019-01-19T14:44:50.391Z,5.40
2019-01-19T14:50:40.749Z,5.30
2019-01-19T14:53:31.635Z,5.30
2019-01-19T14:56:33.040Z,5.30
2019-01-19T14:59:29.035Z,5.20
2019-01-19T15:02:40.810Z,5.20
2019-01-19T15:05:31.397Z,5.20
2019-01-19T15:08:41.599Z,5.20
2019-01-19T15:11:43.958Z,5.10
2019-01-19T15:14:34.667Z,5.10
2019-01-19T15:17:47.903Z,5.10
2019-01-19T15:20:44.104Z,5.10
2019-01-19T15:27:03.023Z,5.00
2019-01-19T15:29:56.562Z,5.00
2019-01-19T15:32:42.501Z,5.00
2019-01-19T15:36:06.724Z,4.90
2019-01-19T15:39:30.839Z,4.90
2019-01-19T15:42:33.642Z,4.80
2019-01-19T15:45:41.160Z,4.70
2019-01-19T15:48:48.368Z,4.70
2019-01-19T15:52:07.801Z,4.70
2019-01-19T15:54:50.478Z,4.60
2019-01-19T15:57:57.685Z,4.50
2019-01-19T16:01:00.361Z,4.50
2019-01-19T16:03:36.895Z,4.40
2019-01-19T16:06:30.369Z,4.40
2019-01-19T16:09:40.229Z,4.30
2019-01-19T16:12:53.499Z,4.30
2019-01-19T16:16:09.874Z,4.20
2019-01-19T16:19:10.834Z,4.10
2019-01-19T16:22:10.259Z,4.10
2019-01-19T16:25:02.365Z,4.00
2019-01-19T16:27:50.932Z,4.00
2019-01-19T16:30:30.782Z,3.90
2019-01-19T16:33:07.549Z,3.80
2019-01-19T16:35:44.066Z,3.80
2019-01-19T16:38:37.434Z,3.70
2019-01-19T16:41:29.441Z,3.70
2019-01-19T16:44:18.784Z,3.70
2019-01-19T16:47:16.281Z,3.60
2019-01-19T16:50:02.057Z,3.60
2019-01-19T16:52:53.173Z,3.60
2019-01-19T16:55:47.877Z,3.60
2019-01-19T16:58:39.693Z,3.60
2019-01-19T17:01:24.779Z,3.50
2019-01-19T17:04:19.793Z,3.50
2019-01-19T17:10:33.944Z,3.40
2019-01-19T17:13:17.083Z,3.40
2019-01-19T17:16:22.735Z,3.40
2019-01-19T17:19:32.879Z,3.30
2019-01-19T17:22:56.921Z,3.30
2019-01-19T17:25:59.378Z,3.30
2019-01-19T17:29:15.512Z,3.20
2019-01-19T17:32:22.540Z,3.20
2019-01-19T17:35:35.485Z,3.20
2019-01-19T17:38:28.852Z,3.10
2019-01-19T17:41:38.803Z,3.10
2019-01-19T17:45:02.855Z,3.00
2019-01-19T17:47:45.841Z,3.00
2019-01-19T17:50:51.506Z,3.00
2019-01-19T17:53:57.150Z,3.00
2019-01-19T17:56:47.943Z,2.90
2019-01-19T17:59:52.266Z,2.90
2019-01-19T18:02:31.795Z,2.90
2019-01-19T18:05:34.752Z,2.90
2019-01-19T18:08:44.938Z,2.90
2019-01-19T18:11:47.323Z,2.90
2019-01-19T18:14:39.110Z,2.90
2019-01-19T18:17:44.268Z,2.80
2019-01-19T18:24:25.883Z,2.80
2019-01-19T18:27:14.967Z,2.90
2019-01-19T18:30:11.559Z,2.80
2019-01-19T18:33:18.576Z,2.80
2019-01-19T18:36:42.786Z,2.80
2019-01-19T18:39:33.445Z,2.90
2019-01-19T18:42:40.703Z,2.90
2019-01-19T18:46:04.887Z,2.80
2019-01-19T18:49:29.257Z,2.80
2019-01-19T18:52:31.750Z,2.80
2019-01-19T18:55:55.353Z,2.80
2019-01-19T18:59:05.592Z,2.80
2019-01-19T19:02:21.981Z,2.70
2019-01-19T19:05:16.852Z,2.70
2019-01-19T19:08:13.296Z,2.70
2019-01-19T19:11:38.465Z,2.70
2019-01-19T19:14:40.426Z,2.60
2019-01-19T19:17:56.766Z,2.60
2019-01-19T19:21:04.556Z,2.60
2019-01-19T19:24:20.484Z,2.50
2019-01-19T19:27:42.648Z,2.50
2019-01-19T19:30:42.613Z,2.40
2019-01-19T19:33:37.382Z,2.40
2019-01-19T19:36:50.617Z,2.40
2019-01-19T19:39:50.220Z,2.30
2019-01-19T19:42:32.911Z,2.30
2019-01-19T19:45:18.779Z,2.30
2019-01-19T19:48:29.103Z,2.30
2019-01-19T19:51:05.858Z,2.20
2019-01-19T19:53:35.393Z,2.20
2019-01-19T19:56:03.269Z,2.10
2019-01-19T19:58:32.754Z,2.10
2019-01-19T20:01:02.263Z,2.10
2019-01-19T20:03:31.712Z,2.10
2019-01-19T20:06:01.407Z,2.10
2019-01-19T20:08:30.991Z,2.10
2019-01-19T20:11:00.541Z,2.10
2019-01-19T20:13:30.027Z,2.10
2019-01-19T20:15:59.427Z,2.10
2019-01-19T20:18:28.917Z,2.10
2019-01-19T20:20:58.423Z,2.10
2019-01-19T20:23:27.945Z,2.10
2019-01-19T20:25:57.386Z,2.10
2019-01-19T20:28:26.928Z,2.10
2019-01-19T20:30:56.518Z,2.10
2019-01-19T20:33:26.062Z,2.10
2019-01-19T20:35:55.535Z,2.10
2019-01-19T20:38:24.997Z,2.10
2019-01-19T20:40:54.661Z,2.00
2019-01-19T20:43:24.167Z,2.00
2019-01-19T20:45:53.697Z,2.00
2019-01-19T20:48:23.452Z,2.00
2019-01-19T20:50:53.074Z,2.00
2019-01-19T20:53:22.535Z,2.00
2019-01-19T20:55:52.016Z,2.00
2019-01-19T20:58:21.576Z,2.00
2019-01-19T21:00:51.282Z,2.00
2019-01-19T21:03:20.771Z,2.00
2019-01-19T21:05:50.304Z,2.00
2019-01-19T21:08:19.820Z,2.00
2019-01-19T21:10:49.306Z,2.00
2019-01-19T21:13:18.886Z,1.90
2019-01-19T21:15:48.375Z,1.90
2019-01-19T21:18:17.834Z,1.90
2019-01-19T21:20:47.512Z,1.90
2019-01-19T21:23:16.964Z,1.90
2019-01-19T21:25:46.440Z,1.90
2019-01-19T21:28:17.422Z,1.90
2019-01-19T21:30:46.884Z,1.90
2019-01-19T21:33:16.426Z,1.90
2019-01-19T21:35:45.966Z,1.90
2019-01-19T21:38:15.503Z,1.90
2019-01-19T21:40:44.997Z,1.90
2019-01-19T21:43:14.564Z,1.90
2019-01-19T21:45:44.071Z,1.80
2019-01-19T21:48:13.553Z,1.90
2019-01-19T21:50:43.120Z,1.90
2019-01-19T21:53:12.623Z,1.90
2019-01-19T21:55:42.303Z,1.80
2019-01-19T21:58:11.841Z,1.80
2019-01-19T22:00:41.509Z,1.80
2019-01-19T22:03:11.118Z,1.80
2019-01-19T22:05:40.657Z,1.80
2019-01-19T22:08:10.195Z,1.80
2019-01-19T22:10:46.298Z,1.80
2019-01-19T22:13:11.607Z,1.70
2019-01-19T22:15:41.226Z,1.70
2019-01-19T22:18:10.919Z,1.70
2019-01-19T22:20:40.482Z,1.70
2019-01-19T22:23:10.254Z,1.70
2019-01-19T22:25:39.755Z,1.60
2019-01-19T22:28:09.390Z,1.60
2019-01-19T22:30:39.084Z,1.60
2019-01-19T22:33:09.476Z,1.60
2019-01-19T22:35:39.102Z,1.60
2019-01-19T22:38:08.591Z,1.60
2019-01-19T22:40:38.082Z,1.60
2019-01-19T22:43:07.839Z,1.60
2019-01-19T22:45:37.369Z,1.60
2019-01-19T22:48:06.894Z,1.50
2019-01-19T22:50:36.369Z,1.50
2019-01-19T22:53:06.015Z,1.50
2019-01-19T22:55:35.457Z,1.50
2019-01-19T22:58:04.961Z,1.50
2019-01-19T23:01:04.476Z,1.40
2019-01-19T23:03:34.829Z,1.40
2019-01-19T23:06:04.727Z,1.40
2019-01-19T23:08:34.241Z,1.40
2019-01-19T23:11:04.021Z,1.40
2019-01-19T23:13:33.569Z,1.30
2019-01-19T23:16:03.453Z,1.30
2019-01-19T23:18:32.995Z,1.30
2019-01-19T23:21:02.515Z,1.30
2019-01-19T23:23:31.981Z,1.20
2019-01-19T23:26:02.595Z,1.30
2019-01-19T23:28:32.252Z,1.20
2019-01-19T23:31:01.752Z,1.20
2019-01-19T23:33:31.282Z,1.20
2019-01-19T23:36:00.746Z,1.10
2019-01-19T23:38:30.242Z,1.10
2019-01-19T23:40:59.699Z,1.10
2019-01-19T23:43:29.122Z,1.10
2019-01-19T23:45:58.593Z,1.10
2019-01-19T23:48:28.030Z,1.10
2019-01-19T23:50:57.488Z,1.10
2019-01-19T23:53:26.938Z,1.00
2019-01-19T23:55:56.379Z,1.00
2019-01-19T23:58:25.860Z,1.00
